Metar z połowy godziny Komunikat METAR ze strony awiacja.imgw.pl Metar G30 EPPO METAR EPPO 230730Z 13014KT 9999 OVC013 M06/M09 Q1007 =